Time;durP1;ratioP1;P1;durP2;ratioP2;P2;SDS_P1;SDS_P2;PMS_P1;PMS_P2;Temp;Humidity;BMP_temperature;BMP_pressure;BME280_temperature;BME280_humidity;BME280_pressure;Samples;Min_cycle;Max_cycle;Signal;HPM_P1;HPM_P2
2023/06/22 00:00:13;;;;;;;14.18;10.10;;;;;;;;;;4411195;32;317587;-95
2023/06/22 00:02:40;;;;;;;11.82;10.68;;;;;;;;;;4421249;32;342741;-96
2023/06/22 00:05:08;;;;;;;12.40;11.00;;;;;;;;;;4425773;32;318645;-95
2023/06/22 00:07:37;;;;;;;12.85;11.48;;;;;;;;;;4415775;32;318430;-95
2023/06/22 00:10:06;;;;;;;16.02;12.27;;;;;;;;;;4437584;32;318197;-96
2023/06/22 00:12:33;;;;;;;13.25;11.77;;;;;;;;;;4410111;32;421136;-95
2023/06/22 00:15:03;;;;;;;12.63;11.32;;;;;;;;;;4437071;32;318787;-96
2023/06/22 00:17:31;;;;;;;12.93;11.57;;;;;;;;;;4424681;32;420491;-96
2023/06/22 00:19:58;;;;;;;12.90;11.20;;;;;;;;;;4422813;32;318247;-90
2023/06/22 00:22:28;;;;;;;13.25;11.30;;;;;;;;;;4419979;32;318392;-94
2023/06/22 00:24:56;;;;;;;12.52;11.38;;;;;;;;;;4417862;32;318356;-94
2023/06/22 00:27:23;;;;;;;12.85;11.48;;;;;;;;;;4407629;32;318460;-94
2023/06/22 00:29:51;;;;;;;12.70;10.35;;;;;;;;;;4422584;32;318227;-94
2023/06/22 00:32:20;;;;;;;13.30;10.90;;;;;;;;;;4401780;32;318409;-94
2023/06/22 00:34:47;;;;;;;11.73;10.55;;;;;;;;;;4438518;32;318410;-95
2023/06/22 00:37:13;;;;;;;12.95;11.45;;;;;;;;;;4427365;32;318517;-94
2023/06/22 00:39:41;;;;;;;12.57;11.27;;;;;;;;;;4429669;32;318427;-95
2023/06/22 00:42:09;;;;;;;13.15;11.35;;;;;;;;;;4417758;32;318348;-95
2023/06/22 00:44:37;;;;;;;14.00;11.77;;;;;;;;;;4427209;32;318446;-95
2023/06/22 00:47:08;;;;;;;16.40;11.45;;;;;;;;;;4428290;32;318512;-95
2023/06/22 00:49:37;;;;;;;16.37;11.63;;;;;;;;;;4399472;32;390948;-95
2023/06/22 00:52:08;;;;;;;15.65;11.38;;;;;;;;;;4436045;32;318608;-95
2023/06/22 00:54:38;;;;;;;13.35;11.80;;;;;;;;;;4423686;32;420964;-94
2023/06/22 00:57:05;;;;;;;13.32;11.30;;;;;;;;;;4435357;32;317307;-94
2023/06/22 00:59:34;;;;;;;12.85;11.57;;;;;;;;;;4425271;32;388766;-95
2023/06/22 01:02:02;;;;;;;14.50;11.43;;;;;;;;;;4415696;32;318814;-95
2023/06/22 01:04:38;;;;;;;13.77;12.25;;;;;;;;;;4412815;32;318699;-94
2023/06/22 01:07:16;;;;;;;12.70;11.40;;;;;;;;;;4423343;32;317079;-95
2023/06/22 01:09:50;;;;;;;16.55;11.02;;;;;;;;;;4424290;32;421657;-96
2023/06/22 01:12:19;;;;;;;18.45;12.32;;;;;;;;;;4417829;32;318561;-94
2023/06/22 01:14:53;;;;;;;12.55;10.95;;;;;;;;;;4423380;32;318702;-95
2023/06/22 01:17:22;;;;;;;16.35;12.57;;;;;;;;;;4425147;32;318644;-95
2023/06/22 01:19:56;;;;;;;12.65;11.35;;;;;;;;;;4427418;32;318430;-94
2023/06/22 01:22:25;;;;;;;13.40;12.00;;;;;;;;;;4405634;32;318444;-96
2023/06/22 01:25:11;;;;;;;14.98;11.45;;;;;;;;;;4423841;32;318554;-94
2023/06/22 01:27:48;;;;;;;14.73;12.45;;;;;;;;;;4411895;32;390537;-95
2023/06/22 01:30:20;;;;;;;14.10;11.90;;;;;;;;;;4408915;32;318469;-96
2023/06/22 01:32:48;;;;;;;11.90;10.73;;;;;;;;;;4437122;32;318488;-95
2023/06/22 01:35:16;;;;;;;12.55;11.32;;;;;;;;;;4413886;32;318313;-94
2023/06/22 01:37:43;;;;;;;18.60;12.13;;;;;;;;;;4436510;32;318473;-95
2023/06/22 01:40:11;;;;;;;13.27;11.50;;;;;;;;;;4425521;32;318541;-95
2023/06/22 01:42:40;;;;;;;13.13;11.48;;;;;;;;;;4436808;32;318338;-96
2023/06/22 01:45:11;;;;;;;17.20;11.40;;;;;;;;;;4411781;32;318122;-94
2023/06/22 01:47:42;;;;;;;13.77;11.85;;;;;;;;;;4436898;32;318389;-96
2023/06/22 01:50:10;;;;;;;14.10;11.32;;;;;;;;;;4409090;32;318480;-94
2023/06/22 01:52:37;;;;;;;12.77;11.43;;;;;;;;;;4430057;32;317257;-95
2023/06/22 01:55:07;;;;;;;12.30;11.20;;;;;;;;;;4424476;32;344057;-94
2023/06/22 01:57:34;;;;;;;13.60;12.20;;;;;;;;;;4400803;32;390447;-96
2023/06/22 02:00:09;;;;;;;18.15;11.73;;;;;;;;;;4423360;32;318554;-95
2023/06/22 02:02:46;;;;;;;17.17;12.82;;;;;;;;;;4405732;32;414566;-96
2023/06/22 02:05:17;;;;;;;16.00;12.45;;;;;;;;;;4414432;32;318420;-93
2023/06/22 02:07:50;;;;;;;15.73;12.88;;;;;;;;;;4418663;32;318413;-96
2023/06/22 02:10:21;;;;;;;16.42;13.10;;;;;;;;;;4429385;32;318544;-95
2023/06/22 02:12:52;;;;;;;16.58;13.68;;;;;;;;;;4438387;32;318262;-94
2023/06/22 02:15:21;;;;;;;17.35;13.32;;;;;;;;;;4414988;32;318348;-95
2023/06/22 02:17:52;;;;;;;15.27;12.82;;;;;;;;;;4423620;32;318472;-95
2023/06/22 02:20:21;;;;;;;14.20;12.90;;;;;;;;;;4424406;32;318394;-96
2023/06/22 02:22:50;;;;;;;18.02;13.30;;;;;;;;;;4438136;32;318217;-94
2023/06/22 02:25:18;;;;;;;18.77;13.60;;;;;;;;;;4400364;32;318564;-96
2023/06/22 02:27:46;;;;;;;13.70;11.93;;;;;;;;;;4437038;32;318459;-94
2023/06/22 02:30:15;;;;;;;16.62;14.27;;;;;;;;;;4420509;32;318508;-94
2023/06/22 02:32:45;;;;;;;18.12;13.85;;;;;;;;;;4424512;32;318581;-93
2023/06/22 02:35:15;;;;;;;15.40;13.82;;;;;;;;;;4426924;32;318725;-93
2023/06/22 02:37:42;;;;;;;14.75;13.13;;;;;;;;;;4438222;32;318496;-93
2023/06/22 02:40:13;;;;;;;14.65;13.10;;;;;;;;;;4406534;32;318351;-93
2023/06/22 02:42:41;;;;;;;14.95;13.45;;;;;;;;;;4427785;32;318305;-96
2023/06/22 02:45:09;;;;;;;13.98;12.57;;;;;;;;;;4414878;32;318397;-94
2023/06/22 02:47:36;;;;;;;14.87;13.38;;;;;;;;;;4426292;32;318424;-95
2023/06/22 02:50:04;;;;;;;15.80;14.23;;;;;;;;;;4413552;32;318230;-95
2023/06/22 02:52:33;;;;;;;16.40;13.43;;;;;;;;;;4415929;32;318964;-94
2023/06/22 02:55:02;;;;;;;18.27;12.98;;;;;;;;;;4436835;32;318305;-94
2023/06/22 02:57:29;;;;;;;16.23;13.32;;;;;;;;;;4407586;32;318321;-96
2023/06/22 02:59:56;;;;;;;16.05;13.40;;;;;;;;;;4424367;32;318903;-96
2023/06/22 03:02:23;;;;;;;20.25;13.65;;;;;;;;;;4437989;32;318434;-96
2023/06/22 03:04:53;;;;;;;14.70;12.55;;;;;;;;;;4405789;32;318406;-93
2023/06/22 03:07:20;;;;;;;14.75;13.23;;;;;;;;;;4422429;32;318583;-96
2023/06/22 03:09:49;;;;;;;17.42;12.48;;;;;;;;;;4428143;32;318610;-95
2023/06/22 03:12:17;;;;;;;14.43;13.02;;;;;;;;;;4437631;32;318414;-95
2023/06/22 03:14:45;;;;;;;14.85;12.88;;;;;;;;;;4427430;32;318471;-94
2023/06/22 03:17:12;;;;;;;15.07;13.57;;;;;;;;;;4438179;32;318753;-96
2023/06/22 03:19:40;;;;;;;23.50;13.25;;;;;;;;;;4406837;32;317891;-96
2023/06/22 03:22:08;;;;;;;16.30;13.15;;;;;;;;;;4422556;32;318413;-96
2023/06/22 03:24:37;;;;;;;14.48;12.80;;;;;;;;;;4427961;32;318525;-95
2023/06/22 03:27:06;;;;;;;17.12;13.62;;;;;;;;;;4416334;32;317519;-95
2023/06/22 03:29:35;;;;;;;16.30;13.80;;;;;;;;;;4405927;32;318298;-95
2023/06/22 03:32:04;;;;;;;20.23;13.88;;;;;;;;;;4438428;32;318648;-96
2023/06/22 03:34:34;;;;;;;19.02;13.15;;;;;;;;;;4419707;32;318579;-95
2023/06/22 03:37:01;;;;;;;24.55;13.38;;;;;;;;;;4410476;32;317303;-94
2023/06/22 03:39:29;;;;;;;16.83;13.57;;;;;;;;;;4411585;32;318264;-95
2023/06/22 03:41:56;;;;;;;18.08;12.88;;;;;;;;;;4424517;32;418481;-94
2023/06/22 03:44:26;;;;;;;17.37;12.75;;;;;;;;;;4437537;32;318543;-96
2023/06/22 03:46:54;;;;;;;23.23;14.87;;;;;;;;;;4423905;32;419911;-96
2023/06/22 03:49:21;;;;;;;16.90;13.00;;;;;;;;;;4437796;32;318527;-96
2023/06/22 03:51:50;;;;;;;17.33;14.60;;;;;;;;;;4427145;32;318619;-95
2023/06/22 03:54:19;;;;;;;14.85;13.00;;;;;;;;;;4438172;32;317098;-94
2023/06/22 03:56:46;;;;;;;15.63;13.23;;;;;;;;;;4413165;32;318728;-93
2023/06/22 03:59:16;;;;;;;23.83;14.15;;;;;;;;;;4424516;32;318656;-94
2023/06/22 04:01:46;;;;;;;19.40;13.93;;;;;;;;;;4427634;32;318744;-94
2023/06/22 04:04:13;;;;;;;14.98;12.77;;;;;;;;;;4438653;32;318309;-94
2023/06/22 04:06:40;;;;;;;14.20;12.77;;;;;;;;;;4425359;32;317533;-94
2023/06/22 04:09:09;;;;;;;16.65;13.13;;;;;;;;;;4423528;32;318575;-94
2023/06/22 04:11:36;;;;;;;16.62;13.73;;;;;;;;;;4412870;32;318530;-95
2023/06/22 04:14:03;;;;;;;16.37;12.98;;;;;;;;;;4422856;32;318660;-95
2023/06/22 04:16:30;;;;;;;16.08;13.50;;;;;;;;;;4419490;32;318475;-95
2023/06/22 04:18:59;;;;;;;14.98;12.93;;;;;;;;;;4437058;32;318257;-95
2023/06/22 04:21:26;;;;;;;18.45;14.82;;;;;;;;;;4437093;32;318564;-94
2023/06/22 04:23:55;;;;;;;21.48;14.70;;;;;;;;;;4414116;32;318165;-95
2023/06/22 04:26:26;;;;;;;18.65;13.93;;;;;;;;;;4425219;32;318428;-95
2023/06/22 04:28:55;;;;;;;18.12;15.38;;;;;;;;;;4419672;32;318453;-93
2023/06/22 04:31:31;;;;;;;19.83;13.62;;;;;;;;;;4436531;32;318551;-96
2023/06/22 04:34:07;;;;;;;17.85;13.80;;;;;;;;;;4423849;32;418803;-95
2023/06/22 04:36:37;;;;;;;26.17;13.98;;;;;;;;;;4417785;32;318128;-95
2023/06/22 04:39:09;;;;;;;16.55;12.77;;;;;;;;;;4429518;32;318547;-96
2023/06/22 04:41:43;;;;;;;24.50;14.50;;;;;;;;;;4426593;32;318487;-95
2023/06/22 04:44:11;;;;;;;27.45;14.68;;;;;;;;;;4437207;32;318443;-94
2023/06/22 04:46:39;;;;;;;17.80;14.82;;;;;;;;;;4415050;32;318465;-96
2023/06/22 04:49:11;;;;;;;14.13;12.63;;;;;;;;;;4430573;32;322560;-95
2023/06/22 04:51:41;;;;;;;18.42;15.10;;;;;;;;;;4406079;32;318567;-96
2023/06/22 04:54:09;;;;;;;26.33;14.57;;;;;;;;;;4424030;32;316879;-95
2023/06/22 04:56:46;;;;;;;16.17;14.10;;;;;;;;;;4406127;32;318259;-94
2023/06/22 04:59:18;;;;;;;18.67;15.27;;;;;;;;;;4435134;32;318299;-95
2023/06/22 05:01:46;;;;;;;29.15;14.75;;;;;;;;;;4407734;32;318366;-95
2023/06/22 05:04:16;;;;;;;18.27;13.45;;;;;;;;;;4416307;32;318053;-96
2023/06/22 05:06:43;;;;;;;22.90;14.27;;;;;;;;;;4402315;32;318618;-96
2023/06/22 05:09:11;;;;;;;24.35;15.00;;;;;;;;;;4401990;32;318307;-96
2023/06/22 05:11:44;;;;;;;27.73;15.57;;;;;;;;;;4398614;32;318395;-95
2023/06/22 05:14:11;;;;;;;18.87;13.88;;;;;;;;;;4416705;32;317573;-94
2023/06/22 05:16:39;;;;;;;21.03;13.57;;;;;;;;;;4402053;32;318429;-96
2023/06/22 05:19:07;;;;;;;19.25;14.25;;;;;;;;;;4402767;32;318535;-95
2023/06/22 05:21:37;;;;;;;20.27;13.93;;;;;;;;;;4402511;32;318178;-95
2023/06/22 05:24:05;;;;;;;17.27;14.35;;;;;;;;;;4406791;32;318285;-96
2023/06/22 05:26:45;;;;;;;18.92;14.02;;;;;;;;;;4380372;32;318784;-96
2023/06/22 05:29:14;;;;;;;17.45;14.40;;;;;;;;;;4406046;32;318265;-96
2023/06/22 05:31:52;;;;;;;18.12;14.52;;;;;;;;;;4390130;32;335422;-96
2023/06/22 05:34:19;;;;;;;22.52;13.65;;;;;;;;;;4406239;32;318621;-95
2023/06/22 05:36:48;;;;;;;15.48;13.93;;;;;;;;;;4401035;32;318329;-96
2023/06/22 05:39:17;;;;;;;16.05;13.62;;;;;;;;;;4410775;32;318220;-96
2023/06/22 05:41:47;;;;;;;15.93;13.73;;;;;;;;;;4401006;32;318500;-94
2023/06/22 05:44:15;;;;;;;21.02;13.82;;;;;;;;;;4407712;32;318439;-95
2023/06/22 05:46:49;;;;;;;15.30;13.88;;;;;;;;;;4396786;32;318716;-96
2023/06/22 05:49:17;;;;;;;17.92;14.20;;;;;;;;;;4409121;32;318772;-96
2023/06/22 05:51:52;;;;;;;21.95;14.73;;;;;;;;;;4392847;32;318703;-96
2023/06/22 05:54:32;;;;;;;19.52;14.68;;;;;;;;;;4419485;32;317139;-94
2023/06/22 05:59:53;;;;;;;19.87;14.73;;;;;;;;;;4394975;32;317324;-95
2023/06/22 06:02:43;;;;;;;16.73;13.75;;;;;;;;;;4395702;32;318568;-96
2023/06/22 06:05:11;;;;;;;14.87;13.38;;;;;;;;;;4406231;32;421924;-96
2023/06/22 06:07:41;;;;;;;29.65;15.30;;;;;;;;;;4414057;32;318518;-96
2023/06/22 06:10:14;;;;;;;18.95;15.23;;;;;;;;;;4425769;32;318405;-96
2023/06/22 06:12:44;;;;;;;16.92;14.65;;;;;;;;;;4419736;32;318122;-96
2023/06/22 06:15:15;;;;;;;17.15;15.45;;;;;;;;;;4431193;32;317287;-96
2023/06/22 06:20:30;;;;;;;23.55;14.77;;;;;;;;;;4422634;32;319612;-96
2023/06/22 06:23:00;;;;;;;17.95;14.65;;;;;;;;;;4410819;32;317601;-96
2023/06/22 06:25:35;;;;;;;15.38;13.88;;;;;;;;;;4421757;32;318289;-96
2023/06/22 06:28:04;;;;;;;18.20;13.00;;;;;;;;;;4388873;32;387468;-96
2023/06/22 06:30:38;;;;;;;18.58;14.52;;;;;;;;;;4412442;32;318595;-96
2023/06/22 06:33:08;;;;;;;17.48;14.10;;;;;;;;;;4421975;32;335480;-95
2023/06/22 06:35:38;;;;;;;16.45;14.68;;;;;;;;;;4405054;32;317371;-96
2023/06/22 06:38:09;;;;;;;19.15;14.95;;;;;;;;;;4424964;32;316457;-96
2023/06/22 06:40:40;;;;;;;16.37;14.65;;;;;;;;;;4398737;32;318231;-96
2023/06/22 06:43:18;;;;;;;18.15;15.20;;;;;;;;;;4423576;32;318445;-96
2023/06/22 06:45:46;;;;;;;15.45;13.38;;;;;;;;;;4377524;32;318821;-96
2023/06/22 06:48:17;;;;;;;17.40;13.40;;;;;;;;;;4424294;32;317356;-95
2023/06/22 06:50:47;;;;;;;17.75;14.85;;;;;;;;;;4384175;32;317733;-96
2023/06/22 06:53:19;;;;;;;17.92;14.77;;;;;;;;;;4416890;32;318458;-96
2023/06/22 06:55:53;;;;;;;20.55;15.20;;;;;;;;;;4398400;32;355201;-96
2023/06/22 06:58:23;;;;;;;16.67;14.85;;;;;;;;;;4422820;32;318430;-96
2023/06/22 07:00:51;;;;;;;18.48;15.18;;;;;;;;;;4400680;32;318460;-95
2023/06/22 07:03:22;;;;;;;25.92;15.43;;;;;;;;;;4417539;32;318358;-96
2023/06/22 07:05:55;;;;;;;18.87;15.87;;;;;;;;;;4413331;32;318632;-96
2023/06/22 07:08:31;;;;;;;18.37;14.55;;;;;;;;;;4423359;32;319028;-96
2023/06/22 07:11:03;;;;;;;21.80;14.48;;;;;;;;;;4384048;32;419950;-96
2023/06/22 07:16:14;;;;;;;16.37;14.65;;;;;;;;;;4398645;32;390199;-96
2023/06/22 07:21:25;;;;;;;15.55;13.90;;;;;;;;;;4415527;32;318513;-96
2023/06/22 07:23:58;;;;;;;15.73;14.13;;;;;;;;;;4387842;32;318356;-96
2023/06/22 07:26:34;;;;;;;17.30;14.48;;;;;;;;;;4418073;32;317188;-96
2023/06/22 07:29:04;;;;;;;21.20;14.13;;;;;;;;;;4384185;32;419940;-96
2023/06/22 07:31:47;;;;;;;15.43;13.45;;;;;;;;;;4395342;32;318492;-96
2023/06/22 07:34:16;;;;;;;16.20;14.38;;;;;;;;;;4403788;32;317313;-96
2023/06/22 07:36:49;;;;;;;15.85;14.05;;;;;;;;;;4395390;32;318500;-96
2023/06/22 07:42:03;;;;;;;18.75;13.75;;;;;;;;;;4393683;32;390831;-96
2023/06/22 07:44:37;;;;;;;17.95;14.10;;;;;;;;;;4408296;32;317061;-96
2023/06/22 07:47:05;;;;;;;14.80;13.30;;;;;;;;;;4415203;32;316131;-96
2023/06/22 07:49:42;;;;;;;14.80;13.30;;;;;;;;;;4424987;32;345580;-96
2023/06/22 07:52:10;;;;;;;15.35;13.75;;;;;;;;;;4410384;32;282426;-96
2023/06/22 07:54:42;;;;;;;15.65;13.50;;;;;;;;;;4400103;32;318504;-96
2023/06/22 07:57:10;;;;;;;20.02;14.80;;;;;;;;;;4400923;32;317479;-96
2023/06/22 07:59:39;;;;;;;14.43;12.93;;;;;;;;;;4406327;32;318491;-96
2023/06/22 08:02:09;;;;;;;14.30;12.80;;;;;;;;;;4414608;32;318343;-96
2023/06/22 08:04:36;;;;;;;15.50;12.10;;;;;;;;;;4417024;32;318769;-94
2023/06/22 08:07:06;;;;;;;18.23;11.32;;;;;;;;;;4386276;32;328722;-96
2023/06/22 08:09:36;;;;;;;13.30;11.50;;;;;;;;;;4412252;32;317412;-95
2023/06/22 08:12:08;;;;;;;17.75;11.82;;;;;;;;;;4425769;32;317142;-96
2023/06/22 08:14:39;;;;;;;15.23;11.23;;;;;;;;;;4390738;32;318049;-95
2023/06/22 08:17:07;;;;;;;11.65;10.43;;;;;;;;;;4415161;32;317404;-96
2023/06/22 08:22:26;;;;;;;13.30;10.70;;;;;;;;;;4409520;32;317420;-96
2023/06/22 08:24:56;;;;;;;11.85;10.25;;;;;;;;;;4401042;32;318282;-96
2023/06/22 08:27:31;;;;;;;19.23;10.52;;;;;;;;;;4416815;32;318428;-94
2023/06/22 08:29:59;;;;;;;10.23;8.52;;;;;;;;;;4397967;32;388827;-96
2023/06/22 08:32:28;;;;;;;12.55;9.35;;;;;;;;;;4411939;32;315481;-96
2023/06/22 08:35:03;;;;;;;11.57;9.68;;;;;;;;;;4398883;32;386605;-96
2023/06/22 08:37:35;;;;;;;10.13;9.13;;;;;;;;;;4402700;32;374068;-96
2023/06/22 08:40:17;;;;;;;13.32;9.10;;;;;;;;;;4419145;32;315539;-96
2023/06/22 08:42:48;;;;;;;9.68;8.75;;;;;;;;;;4406400;32;316107;-95
2023/06/22 08:45:16;;;;;;;14.15;9.90;;;;;;;;;;4377912;32;388678;-95
2023/06/22 08:47:48;;;;;;;10.93;9.18;;;;;;;;;;4384986;32;317303;-96
2023/06/22 08:50:19;;;;;;;13.02;8.73;;;;;;;;;;4420214;32;316526;-96
2023/06/22 08:52:51;;;;;;;16.80;11.10;;;;;;;;;;4397806;32;317564;-96
2023/06/22 08:55:19;;;;;;;10.65;8.60;;;;;;;;;;4408371;32;318253;-96
2023/06/22 08:57:50;;;;;;;10.02;8.07;;;;;;;;;;4405068;32;317090;-95
2023/06/22 09:00:34;;;;;;;10.85;9.60;;;;;;;;;;4415199;32;317536;-96
2023/06/22 09:03:02;;;;;;;17.45;10.35;;;;;;;;;;4397672;32;418878;-95
2023/06/22 09:05:30;;;;;;;11.95;8.80;;;;;;;;;;4399413;32;318559;-96
2023/06/22 09:08:02;;;;;;;11.93;9.60;;;;;;;;;;4414453;32;316402;-94
2023/06/22 09:10:31;;;;;;;13.30;9.32;;;;;;;;;;4416696;32;316178;-95
2023/06/22 09:13:03;;;;;;;18.33;9.07;;;;;;;;;;4391842;32;418672;-91
2023/06/22 09:15:34;;;;;;;10.68;9.25;;;;;;;;;;4416155;32;316177;-91
2023/06/22 09:18:04;;;;;;;14.60;9.15;;;;;;;;;;4403735;32;388182;-95
2023/06/22 09:20:31;;;;;;;11.23;8.77;;;;;;;;;;4403925;32;317304;-94
2023/06/22 09:23:00;;;;;;;17.17;9.60;;;;;;;;;;4412946;32;316270;-94
2023/06/22 09:25:27;;;;;;;12.40;9.32;;;;;;;;;;4414992;32;317341;-93
2023/06/22 09:27:55;;;;;;;16.52;8.30;;;;;;;;;;4385310;32;317583;-92
2023/06/22 09:30:24;;;;;;;9.05;8.15;;;;;;;;;;4411854;32;317462;-93
2023/06/22 09:35:36;;;;;;;13.95;7.97;;;;;;;;;;4415334;32;317530;-96
2023/06/22 09:38:05;;;;;;;9.90;8.90;;;;;;;;;;4404031;32;419288;-96
2023/06/22 09:40:41;;;;;;;13.60;8.35;;;;;;;;;;4374180;32;316442;-96
2023/06/22 09:43:10;;;;;;;8.57;7.72;;;;;;;;;;4414004;32;316572;-96
2023/06/22 09:45:40;;;;;;;12.93;8.32;;;;;;;;;;4383745;32;315697;-95
2023/06/22 09:48:10;;;;;;;8.88;7.25;;;;;;;;;;4414424;32;316489;-96
2023/06/22 09:50:48;;;;;;;9.70;8.33;;;;;;;;;;4385562;32;315604;-95
2023/06/22 09:53:21;;;;;;;12.63;8.27;;;;;;;;;;4409854;32;316377;-94
2023/06/22 09:55:52;;;;;;;8.68;7.78;;;;;;;;;;4413077;32;316239;-95
2023/06/22 09:58:22;;;;;;;8.52;7.55;;;;;;;;;;4408937;32;316630;-96
2023/06/22 10:00:57;;;;;;;11.20;8.38;;;;;;;;;;4387581;32;316461;-96
2023/06/22 10:03:27;;;;;;;8.48;7.22;;;;;;;;;;4405738;32;316736;-96
2023/06/22 10:05:59;;;;;;;9.30;8.00;;;;;;;;;;4404181;32;416185;-96
2023/06/22 10:11:09;;;;;;;12.13;8.00;;;;;;;;;;4398093;32;388217;-95
2023/06/22 10:13:37;;;;;;;10.25;8.48;;;;;;;;;;4383163;32;316608;-96
2023/06/22 10:16:18;;;;;;;11.80;8.02;;;;;;;;;;4399684;32;317242;-96
2023/06/22 10:18:45;;;;;;;7.70;7.00;;;;;;;;;;4413630;32;316411;-94
2023/06/22 10:21:17;;;;;;;9.77;7.00;;;;;;;;;;4423541;32;316435;-96
2023/06/22 10:23:47;;;;;;;11.73;7.82;;;;;;;;;;4397019;32;316711;-96
2023/06/22 10:26:15;;;;;;;8.52;7.72;;;;;;;;;;4401241;32;317526;-95
2023/06/22 10:28:43;;;;;;;9.97;8.17;;;;;;;;;;4402045;32;316581;-95
2023/06/22 10:31:13;;;;;;;9.93;7.32;;;;;;;;;;4414670;32;316583;-96
2023/06/22 10:33:43;;;;;;;8.60;7.47;;;;;;;;;;4391113;32;316866;-96
2023/06/22 10:36:11;;;;;;;10.52;8.45;;;;;;;;;;4420455;32;316431;-95
2023/06/22 10:38:43;;;;;;;11.45;9.07;;;;;;;;;;4411988;32;317454;-94
2023/06/22 10:41:11;;;;;;;10.13;8.43;;;;;;;;;;4421136;32;317642;-96
2023/06/22 10:43:41;;;;;;;8.60;7.50;;;;;;;;;;4381766;32;317195;-96
2023/06/22 10:46:14;;;;;;;8.25;7.00;;;;;;;;;;4407828;32;315436;-95
2023/06/22 10:48:45;;;;;;;8.98;7.72;;;;;;;;;;4392527;32;316308;-95
2023/06/22 10:51:15;;;;;;;8.85;7.95;;;;;;;;;;4402178;32;316442;-95
2023/06/22 10:53:43;;;;;;;8.82;7.95;;;;;;;;;;4390455;32;316226;-96
2023/06/22 10:56:10;;;;;;;10.68;8.10;;;;;;;;;;4419616;32;316403;-96
2023/06/22 10:58:40;;;;;;;10.63;8.93;;;;;;;;;;4401787;32;317400;-95
2023/06/22 11:01:08;;;;;;;9.32;8.10;;;;;;;;;;4408029;32;316405;-95
2023/06/22 11:03:39;;;;;;;9.15;8.18;;;;;;;;;;4389733;32;316403;-96
2023/06/22 11:06:11;;;;;;;9.05;8.00;;;;;;;;;;4408867;32;316539;-95
2023/06/22 11:08:39;;;;;;;12.13;8.32;;;;;;;;;;4390002;32;316256;-95
2023/06/22 11:11:09;;;;;;;12.23;7.70;;;;;;;;;;4411325;32;317096;-96
2023/06/22 11:13:39;;;;;;;9.38;7.37;;;;;;;;;;4396144;32;317544;-95
2023/06/22 11:16:08;;;;;;;13.05;8.15;;;;;;;;;;4407811;32;316492;-96
2023/06/22 11:18:40;;;;;;;10.20;7.80;;;;;;;;;;4393770;32;316367;-96
2023/06/22 11:21:07;;;;;;;13.05;8.02;;;;;;;;;;4407486;32;317465;-94
2023/06/22 11:23:35;;;;;;;9.23;7.53;;;;;;;;;;4385446;32;317495;-95
2023/06/22 11:26:02;;;;;;;9.15;6.93;;;;;;;;;;4418266;32;316355;-96
2023/06/22 11:28:31;;;;;;;7.37;6.68;;;;;;;;;;4400978;32;316421;-94
2023/06/22 11:30:58;;;;;;;9.98;8.10;;;;;;;;;;4405989;32;316435;-94
2023/06/22 11:33:27;;;;;;;9.07;7.70;;;;;;;;;;4407394;32;316155;-95
2023/06/22 11:35:58;;;;;;;9.10;8.05;;;;;;;;;;4402048;32;316536;-94
2023/06/22 11:38:27;;;;;;;10.93;8.63;;;;;;;;;;4405881;32;316828;-95
2023/06/22 11:40:56;;;;;;;12.27;8.35;;;;;;;;;;4391407;32;389761;-95
2023/06/22 11:43:23;;;;;;;11.25;7.45;;;;;;;;;;4397718;32;317345;-95
2023/06/22 11:45:55;;;;;;;8.30;7.47;;;;;;;;;;4398564;32;317338;-94
2023/06/22 11:48:22;;;;;;;11.25;7.32;;;;;;;;;;4407287;32;316427;-95
2023/06/22 11:50:50;;;;;;;9.15;7.20;;;;;;;;;;4390345;32;317232;-96
2023/06/22 11:53:26;;;;;;;10.98;7.47;;;;;;;;;;4402971;32;316378;-95
2023/06/22 11:55:55;;;;;;;7.43;6.75;;;;;;;;;;4374621;32;358335;-95
2023/06/22 11:58:23;;;;;;;9.52;7.30;;;;;;;;;;4413238;32;316432;-96
2023/06/22 12:00:51;;;;;;;7.35;6.65;;;;;;;;;;4396243;32;316309;-96
2023/06/22 12:03:19;;;;;;;8.63;7.35;;;;;;;;;;4392131;32;316379;-96
2023/06/22 12:05:46;;;;;;;12.10;7.80;;;;;;;;;;4387296;32;347794;-95
2023/06/22 12:08:16;;;;;;;8.18;6.87;;;;;;;;;;4397976;32;317554;-94
2023/06/22 12:10:45;;;;;;;8.80;7.43;;;;;;;;;;4401403;32;316301;-93
2023/06/22 12:13:12;;;;;;;10.18;8.15;;;;;;;;;;4401893;32;316923;-94
2023/06/22 12:15:43;;;;;;;12.00;7.45;;;;;;;;;;4401162;32;317461;-95
2023/06/22 12:18:14;;;;;;;7.47;6.78;;;;;;;;;;4397177;32;345677;-95
2023/06/22 12:20:41;;;;;;;11.55;7.35;;;;;;;;;;4377167;32;316384;-96
2023/06/22 12:23:10;;;;;;;8.50;6.55;;;;;;;;;;4410537;32;317347;-95
2023/06/22 12:25:40;;;;;;;8.30;7.20;;;;;;;;;;4399492;32;316325;-96
2023/06/22 12:28:09;;;;;;;8.85;7.20;;;;;;;;;;4404351;32;316324;-95
2023/06/22 12:30:37;;;;;;;10.88;7.25;;;;;;;;;;4393115;32;316400;-95
2023/06/22 12:33:05;;;;;;;8.50;7.60;;;;;;;;;;4407939;32;317578;-96
2023/06/22 12:35:34;;;;;;;9.73;7.00;;;;;;;;;;4386097;32;316338;-94
2023/06/22 12:38:02;;;;;;;8.23;7.45;;;;;;;;;;4415514;32;316354;-94
2023/06/22 12:40:30;;;;;;;8.05;6.85;;;;;;;;;;4395523;32;316175;-94
2023/06/22 12:43:02;;;;;;;7.80;7.00;;;;;;;;;;4404139;32;316265;-94
2023/06/22 12:45:33;;;;;;;8.52;6.55;;;;;;;;;;4404375;32;316341;-95
2023/06/22 12:48:17;;;;;;;7.47;6.70;;;;;;;;;;4386964;32;387651;-95
2023/06/22 12:50:44;;;;;;;6.95;6.25;;;;;;;;;;4389096;32;316308;-96
2023/06/22 12:53:12;;;;;;;7.70;6.55;;;;;;;;;;4423792;32;316092;-94
2023/06/22 12:55:39;;;;;;;8.55;6.72;;;;;;;;;;4402688;32;316136;-95
2023/06/22 12:58:09;;;;;;;7.32;6.57;;;;;;;;;;4407106;32;315921;-95
2023/06/22 13:00:39;;;;;;;8.83;6.90;;;;;;;;;;4384397;32;329998;-94
2023/06/22 13:03:21;;;;;;;15.65;6.75;;;;;;;;;;4410631;32;316342;-94
2023/06/22 13:05:49;;;;;;;9.48;6.50;;;;;;;;;;4392547;32;317388;-95
2023/06/22 13:08:17;;;;;;;10.73;6.45;;;;;;;;;;4411192;32;316343;-94
2023/06/22 13:10:44;;;;;;;7.57;6.62;;;;;;;;;;4395828;32;317283;-94
2023/06/22 13:13:12;;;;;;;7.45;6.75;;;;;;;;;;4402322;32;316662;-95
2023/06/22 13:15:42;;;;;;;8.02;7.15;;;;;;;;;;4392577;32;316321;-94
2023/06/22 13:18:09;;;;;;;8.10;6.82;;;;;;;;;;4406890;32;316363;-96
2023/06/22 13:20:39;;;;;;;8.32;6.55;;;;;;;;;;4388653;32;316535;-96
2023/06/22 13:23:07;;;;;;;7.32;6.50;;;;;;;;;;4415674;32;316279;-95
2023/06/22 13:25:37;;;;;;;8.20;6.57;;;;;;;;;;4385419;32;316572;-96
2023/06/22 13:28:05;;;;;;;8.07;6.53;;;;;;;;;;4408749;32;351918;-96
2023/06/22 13:30:32;;;;;;;9.38;6.55;;;;;;;;;;4369222;32;316383;-95
2023/06/22 13:33:04;;;;;;;9.50;7.45;;;;;;;;;;4401823;32;316406;-96
2023/06/22 13:35:32;;;;;;;10.35;7.40;;;;;;;;;;4392245;32;316816;-96
2023/06/22 13:38:00;;;;;;;7.97;6.32;;;;;;;;;;4402870;32;316473;-95
2023/06/22 13:40:27;;;;;;;9.63;7.28;;;;;;;;;;4400129;32;316102;-94
2023/06/22 13:42:54;;;;;;;17.52;7.97;;;;;;;;;;4391263;32;316856;-95
2023/06/22 13:45:21;;;;;;;8.15;7.20;;;;;;;;;;4402675;32;317506;-96
2023/06/22 13:47:49;;;;;;;14.52;7.87;;;;;;;;;;4384940;32;316280;-95
2023/06/22 13:50:20;;;;;;;12.98;8.05;;;;;;;;;;4402326;32;317507;-94
2023/06/22 13:52:47;;;;;;;11.27;8.18;;;;;;;;;;4396341;32;317575;-95
2023/06/22 13:55:15;;;;;;;11.40;7.40;;;;;;;;;;4406334;32;317052;-96
2023/06/22 13:57:47;;;;;;;8.60;7.47;;;;;;;;;;4393053;32;317586;-95
2023/06/22 14:00:15;;;;;;;8.70;6.55;;;;;;;;;;4406967;32;316398;-93
2023/06/22 14:02:43;;;;;;;9.77;7.20;;;;;;;;;;4395497;32;319863;-96
2023/06/22 14:05:10;;;;;;;18.08;7.70;;;;;;;;;;4401138;32;316415;-94
2023/06/22 14:07:40;;;;;;;11.45;7.80;;;;;;;;;;4397356;32;317257;-96
2023/06/22 14:10:09;;;;;;;8.88;7.93;;;;;;;;;;4407275;32;317485;-95
2023/06/22 14:12:35;;;;;;;11.18;8.13;;;;;;;;;;4383175;32;316616;-95
2023/06/22 14:15:03;;;;;;;8.90;8.00;;;;;;;;;;4404139;32;317483;-95
2023/06/22 14:17:37;;;;;;;11.23;8.40;;;;;;;;;;4391886;32;358200;-95
2023/06/22 14:20:08;;;;;;;17.12;9.13;;;;;;;;;;4405014;32;317381;-94
2023/06/22 14:22:36;;;;;;;10.27;9.00;;;;;;;;;;4396085;32;317541;-92
2023/06/22 14:25:12;;;;;;;18.75;9.40;;;;;;;;;;4406668;32;317614;-95
2023/06/22 14:27:39;;;;;;;14.07;8.80;;;;;;;;;;4382243;32;317300;-96
2023/06/22 14:30:07;;;;;;;11.82;7.70;;;;;;;;;;4404072;32;316246;-96
2023/06/22 14:32:36;;;;;;;12.98;8.13;;;;;;;;;;4391545;32;319122;-96
2023/06/22 14:35:04;;;;;;;14.63;6.68;;;;;;;;;;4405918;32;317383;-96
2023/06/22 14:37:30;;;;;;;9.63;7.32;;;;;;;;;;4399467;32;317848;-96
2023/06/22 14:39:59;;;;;;;12.13;7.57;;;;;;;;;;4404549;32;316074;-96
2023/06/22 14:42:29;;;;;;;15.90;8.82;;;;;;;;;;4403357;32;317430;-96
2023/06/22 14:44:58;;;;;;;15.20;8.18;;;;;;;;;;4391384;32;420065;-94
2023/06/22 14:47:25;;;;;;;20.20;7.37;;;;;;;;;;4404741;32;317742;-94
2023/06/22 14:49:52;;;;;;;12.07;6.82;;;;;;;;;;4381969;32;317536;-93